Hendersonville, NC

7:10 AM EST on December 03, 2016 (GMT -0500)
Maplewood Ct off Hwy 191 Haywood Rd. | | Change Station

Elev 2126 ft 35.33 °N, 82.48 °W | Updated 3 seconds ago

Clear
Clear
35.0 °F
Feels Like 35 °F
N
0.0
Wind Variable Wind from East
Gusts 0.0 mph

Today
High -- | Low -- °F
--% Chance of Precip.
Yesterday
High -- | Low -- °F
Precip. -- in
Pressure 30.26 in
Visibility 10.0 miles
Clouds Clear
Windchill 35 °F
Dew Point 28 °F
Humidity 75%
Rainfall 0.00 in
Snow Depth Not available.
7:22 AM 5:17 PM
Waxing Crescent, 14% visible
METAR KAVL 031154Z 33008KT 10SM CLR 03/M04 A3025 RMK AO2 SLP245 T00281039 10050 20022 53009
Pressure 30.26 in
Visibility 10.0 miles
Clouds Clear
Windchill 35 °F
Dew Point 28 °F
Humidity 75%
Rainfall 0.00 in
Snow Depth Not available.
7:22 AM 5:17 PM
Waxing Crescent, 14% visible
METAR KAVL 031154Z 33008KT 10SM CLR 03/M04 A3025 RMK AO2 SLP245 T00281039 10050 20022 53009

10-Day Weather Forecast

Almanac

Astronomy

Dec. 03, 2016 Rise Set
Actual Time
Civil Twilight
Nautical Twilight
Astronomical Twilight
Moon
Length of Visible Light
Length of Day
Tomorrow will be .
, % of the Moon is Illuminated

Today's Extremes

State Highs State Lows

Community

WunderPhotos

Upload Photos

1,955,441 photos uploaded!

WunderBlog® & News

Nearby

Air Quality

  Air Quality AQ Index Pollutant
Not available.

Snow Depth

Station Depth Elevation

Earthquake Activity

City Distance Mag. Time & Date
Minimum magnitude displayed is 2.5.

Coastal Water Temperatures

Place Temperature

Stations

Nearby Weather Stations

Station Location Temp. Windchill Dew Point Humidity Wind Precip. Elev Updated Type
                   

Watches & Warnings

There are currently no watches in effect.